createdAt,value
2022-12-31T00:00:58.287Z,2.73
2022-12-31T00:03:00.834Z,2.19
2022-12-31T00:05:03.612Z,2.22
2022-12-31T00:07:05.889Z,2.27
2022-12-31T00:09:14.963Z,2.27
2022-12-31T00:11:20.565Z,2.71
2022-12-31T00:13:25.892Z,2.78
2022-12-31T00:15:32.250Z,2.34
2022-12-31T00:17:34.351Z,3.07
2022-12-31T00:19:36.323Z,3.18
2022-12-31T00:21:41.621Z,3.09
2022-12-31T00:23:43.600Z,2.89
2022-12-31T00:25:45.459Z,3.56
2022-12-31T00:27:47.426Z,3.34
2022-12-31T00:29:49.377Z,3.05
2022-12-31T00:31:51.068Z,3.40
2022-12-31T00:33:53.224Z,3.97
2022-12-31T00:35:54.903Z,3.89
2022-12-31T00:37:56.601Z,4.02
2022-12-31T00:39:58.373Z,3.85
2022-12-31T00:42:00.136Z,3.94
2022-12-31T00:44:02.229Z,3.98
2022-12-31T00:46:04.991Z,3.96
2022-12-31T00:48:06.687Z,4.04
2022-12-31T00:50:08.778Z,4.08
2022-12-31T00:52:10.438Z,4.04
2022-12-31T00:54:12.366Z,4.10
2022-12-31T00:56:19.839Z,4.11
2022-12-31T00:58:21.493Z,4.02
2022-12-31T01:00:23.193Z,4.24
2022-12-31T01:02:25.038Z,4.16
2022-12-31T01:04:26.922Z,4.14
2022-12-31T01:06:28.624Z,4.20
2022-12-31T01:08:30.334Z,4.28
2022-12-31T01:10:32.143Z,4.22
2022-12-31T01:12:33.818Z,3.06
2022-12-31T01:14:35.659Z,4.15
2022-12-31T01:16:49.172Z,4.21
2022-12-31T01:18:51.035Z,4.05
2022-12-31T01:20:52.790Z,4.10
2022-12-31T01:22:54.486Z,3.96
2022-12-31T01:24:56.183Z,4.28
2022-12-31T01:26:58.068Z,4.19
2022-12-31T01:28:59.849Z,4.02
2022-12-31T01:31:09.819Z,4.13
2022-12-31T01:33:11.530Z,4.20
2022-12-31T01:35:13.213Z,4.25
2022-12-31T01:37:14.888Z,4.08
2022-12-31T01:39:18.022Z,4.14
2022-12-31T01:41:41.237Z,4.22
2022-12-31T01:44:01.047Z,4.28
2022-12-31T01:46:02.844Z,4.32
2022-12-31T01:48:04.829Z,4.32
2022-12-31T01:50:12.060Z,4.31
2022-12-31T01:52:22.749Z,4.38
2022-12-31T01:54:27.279Z,4.43
2022-12-31T01:56:29.247Z,4.40
2022-12-31T01:58:49.663Z,4.49
2022-12-31T02:00:53.214Z,4.44
2022-12-31T02:02:55.308Z,4.53
2022-12-31T02:05:00.351Z,4.55
2022-12-31T02:07:05.392Z,4.43
2022-12-31T02:09:08.039Z,4.60
2022-12-31T02:11:30.478Z,4.62
2022-12-31T02:13:32.209Z,4.47
2022-12-31T02:16:18.406Z,4.58
2022-12-31T02:18:46.971Z,4.60
2022-12-31T02:21:14.346Z,4.48
2022-12-31T02:23:19.155Z,4.53
2022-12-31T02:25:20.966Z,4.63
2022-12-31T02:27:42.496Z,4.58
2022-12-31T02:30:24.312Z,4.64
2022-12-31T02:32:51.412Z,4.65
2022-12-31T02:35:02.793Z,4.68
2022-12-31T02:37:10.665Z,4.71
2022-12-31T02:39:14.637Z,4.72
2022-12-31T02:41:18.684Z,4.84
2022-12-31T02:43:20.418Z,4.90
2022-12-31T02:45:29.723Z,5.05
2022-12-31T02:47:46.618Z,4.97
2022-12-31T02:50:33.227Z,5.01
2022-12-31T02:53:11.583Z,5.13
2022-12-31T02:55:25.995Z,5.27
2022-12-31T02:57:36.655Z,5.33
2022-12-31T02:59:44.525Z,5.40
2022-12-31T03:01:51.780Z,5.56
2022-12-31T03:03:53.652Z,5.54
2022-12-31T03:05:57.261Z,5.43
2022-12-31T03:07:58.868Z,5.63
2022-12-31T03:10:01.304Z,5.55
2022-12-31T03:12:05.299Z,5.61
2022-12-31T03:14:07.043Z,5.62
2022-12-31T03:16:08.820Z,5.79
2022-12-31T03:18:13.446Z,5.81
2022-12-31T03:20:15.217Z,5.81
2022-12-31T03:22:17.017Z,5.72
2022-12-31T03:24:18.754Z,5.86
2022-12-31T03:26:20.409Z,5.87
2022-12-31T03:28:25.556Z,5.93
2022-12-31T03:30:28.102Z,5.92
2022-12-31T03:32:29.793Z,5.86
2022-12-31T03:34:31.454Z,5.97
2022-12-31T03:36:33.174Z,5.77
2022-12-31T03:38:34.863Z,5.84
2022-12-31T03:40:45.791Z,5.89
2022-12-31T03:42:47.584Z,5.90
2022-12-31T03:44:49.265Z,5.96
2022-12-31T03:46:50.985Z,5.99
2022-12-31T03:48:52.671Z,5.92
2022-12-31T03:50:54.571Z,6.07
2022-12-31T03:52:56.549Z,6.07
2022-12-31T03:54:58.451Z,6.19
2022-12-31T03:57:00.533Z,6.19
2022-12-31T03:59:02.374Z,6.20
2022-12-31T04:01:04.112Z,6.17
2022-12-31T04:03:05.940Z,6.28
2022-12-31T04:05:08.120Z,6.28
2022-12-31T04:07:09.849Z,6.40
2022-12-31T04:09:11.503Z,6.32
2022-12-31T04:11:18.927Z,6.46
2022-12-31T04:13:22.504Z,6.56
2022-12-31T04:15:24.208Z,6.57
2022-12-31T04:17:26.563Z,6.59
2022-12-31T04:19:28.266Z,6.65
2022-12-31T04:21:34.846Z,6.55
2022-12-31T04:23:36.964Z,6.70
2022-12-31T04:25:38.650Z,6.69
2022-12-31T04:27:41.576Z,6.76
2022-12-31T04:29:43.300Z,6.91
2022-12-31T04:31:45.144Z,6.80
2022-12-31T04:33:46.872Z,6.81
2022-12-31T04:35:48.642Z,6.90
2022-12-31T04:37:50.417Z,6.77
2022-12-31T04:39:52.174Z,6.90
2022-12-31T04:41:53.845Z,7.01
2022-12-31T04:43:57.988Z,6.95
2022-12-31T04:45:59.741Z,6.79
2022-12-31T04:48:02.081Z,6.55
2022-12-31T04:50:04.421Z,6.65
2022-12-31T04:52:06.098Z,6.61
2022-12-31T04:54:07.817Z,6.38
2022-12-31T04:56:10.339Z,6.43
2022-12-31T04:58:12.033Z,6.49
2022-12-31T05:00:14.045Z,6.51
2022-12-31T05:02:15.837Z,6.33
2022-12-31T05:04:17.585Z,6.20
2022-12-31T05:06:21.681Z,6.25
2022-12-31T05:08:23.363Z,6.27
2022-12-31T05:10:25.040Z,6.34
2022-12-31T05:12:26.757Z,6.50
2022-12-31T05:14:28.508Z,6.40
2022-12-31T05:16:30.241Z,6.28
2022-12-31T05:18:32.921Z,6.32
2022-12-31T05:20:35.113Z,6.29
2022-12-31T05:22:36.778Z,6.31
2022-12-31T05:24:38.434Z,6.39
2022-12-31T05:26:40.143Z,6.37
2022-12-31T05:28:41.967Z,6.35
2022-12-31T05:30:43.904Z,6.53
2022-12-31T05:32:46.633Z,6.65
2022-12-31T05:34:48.292Z,6.60
2022-12-31T05:36:50.072Z,6.36
2022-12-31T05:38:51.817Z,6.73
2022-12-31T05:41:03.290Z,6.90
2022-12-31T05:43:05.018Z,6.77
2022-12-31T05:45:07.254Z,6.74
2022-12-31T05:47:08.919Z,6.87
2022-12-31T05:49:10.855Z,6.77
2022-12-31T05:51:12.565Z,6.76
2022-12-31T05:53:14.232Z,6.91
2022-12-31T05:55:16.031Z,6.78
2022-12-31T05:57:17.727Z,6.84
2022-12-31T05:59:19.447Z,6.95
2022-12-31T06:01:21.163Z,6.98
2022-12-31T06:03:22.903Z,6.85
2022-12-31T06:05:26.414Z,7.00
2022-12-31T06:07:28.729Z,7.21
2022-12-31T06:09:30.440Z,7.00
2022-12-31T06:11:32.110Z,6.94
2022-12-31T06:13:33.825Z,7.07
2022-12-31T06:15:39.927Z,7.28
2022-12-31T06:17:41.641Z,7.22
2022-12-31T06:19:43.350Z,7.23
2022-12-31T06:21:45.015Z,7.32
2022-12-31T06:23:47.474Z,7.30
2022-12-31T06:25:50.132Z,7.34
2022-12-31T06:27:51.804Z,7.47
2022-12-31T06:29:53.529Z,7.43
2022-12-31T06:31:55.271Z,7.33
2022-12-31T06:33:57.029Z,7.51
2022-12-31T06:36:01.389Z,7.52
2022-12-31T06:38:03.195Z,7.56
2022-12-31T06:40:05.452Z,7.69
2022-12-31T06:42:07.144Z,7.64
2022-12-31T06:44:08.844Z,7.60
2022-12-31T06:46:14.386Z,7.75
2022-12-31T06:48:16.099Z,7.84
2022-12-31T06:50:17.827Z,7.78
2022-12-31T06:52:19.661Z,7.87
2022-12-31T06:54:21.459Z,7.94
2022-12-31T06:56:33.029Z,7.85
2022-12-31T06:58:36.140Z,7.99
2022-12-31T07:00:38.029Z,7.82
2022-12-31T07:03:07.092Z,7.73
2022-12-31T07:05:37.435Z,7.91
2022-12-31T07:07:44.826Z,8.00
2022-12-31T07:09:56.167Z,8.06
2022-12-31T07:12:17.960Z,8.22
2022-12-31T07:14:25.547Z,8.10
2022-12-31T07:16:44.334Z,8.16
2022-12-31T07:19:12.925Z,8.15
2022-12-31T07:21:30.267Z,8.15
2022-12-31T07:23:32.221Z,8.22
2022-12-31T07:25:37.722Z,7.95
2022-12-31T07:27:59.571Z,7.92
2022-12-31T07:30:14.814Z,8.13
2022-12-31T07:32:42.735Z,8.24
2022-12-31T07:35:11.483Z,8.12
2022-12-31T07:37:27.228Z,8.26
2022-12-31T07:39:41.913Z,8.15
2022-12-31T07:42:00.016Z,8.14
2022-12-31T07:44:24.091Z,8.23
2022-12-31T07:46:44.045Z,8.21
2022-12-31T07:48:46.006Z,8.14
2022-12-31T07:50:48.001Z,8.13
2022-12-31T07:52:49.945Z,8.11
2022-12-31T07:54:51.671Z,8.27
2022-12-31T07:56:53.401Z,8.38
2022-12-31T07:59:15.739Z,8.28
2022-12-31T08:01:33.398Z,8.37
2022-12-31T08:03:57.071Z,8.37
2022-12-31T08:06:12.197Z,8.38
2022-12-31T08:08:32.202Z,8.50
2022-12-31T08:11:11.363Z,8.53
2022-12-31T08:13:13.441Z,8.46
2022-12-31T08:15:17.578Z,8.47
2022-12-31T08:17:20.048Z,8.56
2022-12-31T08:19:31.064Z,8.63
2022-12-31T08:21:35.430Z,8.61
2022-12-31T08:23:54.508Z,8.58
2022-12-31T08:26:23.607Z,8.65
2022-12-31T08:28:49.779Z,8.69
2022-12-31T08:30:54.229Z,8.61
2022-12-31T08:33:38.375Z,8.70
2022-12-31T08:36:01.710Z,8.68
2022-12-31T08:38:32.584Z,8.68
2022-12-31T08:41:01.473Z,8.73
2022-12-31T08:43:27.433Z,8.73
2022-12-31T08:45:41.883Z,8.74
2022-12-31T08:48:15.635Z,8.84
2022-12-31T08:50:19.072Z,8.88
2022-12-31T08:52:24.815Z,8.69
2022-12-31T08:54:27.020Z,8.72
2022-12-31T08:56:50.443Z,8.92
2022-12-31T08:59:11.141Z,8.88
2022-12-31T09:01:16.776Z,9.11
2022-12-31T09:03:30.280Z,9.26
2022-12-31T09:05:46.850Z,9.23
2022-12-31T09:08:17.569Z,9.16
2022-12-31T09:10:35.033Z,9.20
2022-12-31T09:13:05.305Z,9.26
2022-12-31T09:15:26.557Z,9.18
2022-12-31T09:17:47.461Z,9.03
2022-12-31T09:19:49.448Z,9.16
2022-12-31T09:21:51.465Z,9.09
2022-12-31T09:23:53.525Z,9.15
2022-12-31T09:26:33.290Z,9.12
2022-12-31T09:29:46.044Z,9.19
2022-12-31T09:31:54.602Z,9.15
2022-12-31T09:33:56.251Z,9.26
2022-12-31T09:36:02.612Z,9.10
2022-12-31T09:38:16.184Z,9.37
2022-12-31T09:40:36.374Z,9.44
2022-12-31T09:43:05.658Z,9.36
2022-12-31T09:45:34.024Z,9.30
2022-12-31T09:47:38.563Z,9.50
2022-12-31T09:50:17.744Z,9.49
2022-12-31T09:52:51.917Z,9.60
2022-12-31T09:55:12.470Z,9.77
2022-12-31T09:57:23.490Z,9.92
2022-12-31T09:59:48.347Z,9.82
2022-12-31T10:02:11.932Z,9.86
2022-12-31T10:04:28.844Z,9.95
2022-12-31T10:07:06.596Z,10.33
2022-12-31T10:09:36.409Z,10.48
2022-12-31T10:11:38.055Z,10.50
2022-12-31T10:13:48.677Z,10.29
2022-12-31T10:16:08.543Z,10.21
2022-12-31T10:18:38.151Z,10.25
2022-12-31T10:20:58.069Z,10.26
2022-12-31T10:23:07.646Z,10.11
2022-12-31T10:25:42.951Z,10.17
2022-12-31T10:28:32.397Z,10.31
2022-12-31T10:30:39.538Z,10.37
2022-12-31T10:32:43.231Z,10.34
2022-12-31T10:35:03.571Z,10.35
2022-12-31T10:37:18.283Z,10.31
2022-12-31T10:39:34.574Z,10.41
2022-12-31T10:42:05.686Z,10.40
2022-12-31T10:44:28.428Z,10.46
2022-12-31T10:47:16.570Z,10.67
2022-12-31T10:49:38.745Z,10.44
2022-12-31T10:52:15.117Z,10.49
2022-12-31T10:54:40.445Z,10.69
2022-12-31T10:56:51.237Z,10.62
2022-12-31T10:59:13.859Z,10.67
2022-12-31T11:01:30.827Z,10.26
2022-12-31T11:03:44.826Z,10.23
2022-12-31T11:06:07.331Z,10.20
2022-12-31T11:08:46.240Z,10.19
2022-12-31T11:11:02.345Z,10.08
2022-12-31T11:13:09.854Z,10.23
2022-12-31T11:15:50.231Z,10.36
2022-12-31T11:18:13.390Z,10.45
2022-12-31T11:20:39.283Z,10.46
2022-12-31T11:22:41.044Z,10.48
2022-12-31T11:25:01.280Z,10.54
2022-12-31T11:27:11.824Z,10.49
2022-12-31T11:29:54.613Z,10.59
2022-12-31T11:32:14.243Z,10.55
2022-12-31T11:34:37.941Z,10.60
2022-12-31T11:36:57.730Z,10.71
2022-12-31T11:39:33.064Z,10.81
2022-12-31T11:41:52.627Z,10.88
2022-12-31T11:44:12.385Z,11.12
2022-12-31T11:46:24.287Z,10.85
2022-12-31T11:48:35.274Z,11.03
2022-12-31T11:51:04.628Z,10.98
2022-12-31T11:53:27.965Z,11.09
2022-12-31T11:56:00.513Z,11.05
2022-12-31T11:58:16.434Z,10.86
2022-12-31T12:00:22.356Z,11.06
2022-12-31T12:02:43.349Z,11.12
2022-12-31T12:04:48.500Z,11.22
2022-12-31T12:06:51.158Z,11.49
2022-12-31T12:08:55.927Z,11.25
2022-12-31T12:11:06.688Z,11.26
2022-12-31T12:13:28.011Z,11.38
2022-12-31T12:15:34.512Z,11.52
2022-12-31T12:17:36.850Z,11.65
2022-12-31T12:19:44.311Z,11.83
2022-12-31T12:21:50.463Z,11.61
2022-12-31T12:24:20.823Z,11.75
2022-12-31T12:26:34.932Z,11.74
2022-12-31T12:28:44.746Z,11.96
2022-12-31T12:31:02.835Z,11.96
2022-12-31T12:33:04.563Z,12.03
2022-12-31T12:35:19.176Z,11.98
2022-12-31T12:37:33.218Z,12.06
2022-12-31T12:39:35.187Z,11.89
2022-12-31T12:41:36.873Z,11.99
2022-12-31T12:43:39.787Z,11.97
2022-12-31T12:45:51.683Z,12.16
2022-12-31T12:47:57.556Z,11.68
2022-12-31T12:50:00.069Z,11.85
2022-12-31T12:52:07.686Z,11.98
2022-12-31T12:54:25.669Z,12.07
2022-12-31T12:57:10.376Z,11.82
2022-12-31T12:59:53.933Z,12.19
2022-12-31T13:02:17.162Z,12.08
2022-12-31T13:04:35.172Z,11.90
2022-12-31T13:06:52.221Z,11.78
2022-12-31T13:09:28.375Z,12.05
2022-12-31T13:11:45.129Z,12.06
2022-12-31T13:14:04.942Z,12.09
2022-12-31T13:16:09.539Z,12.05
2022-12-31T13:18:56.295Z,12.11
2022-12-31T13:21:21.148Z,12.18
2022-12-31T13:23:42.107Z,12.26
2022-12-31T13:26:04.040Z,12.02
2022-12-31T13:28:11.957Z,12.27
2022-12-31T13:30:36.745Z,12.54
2022-12-31T13:32:43.497Z,12.20
2022-12-31T13:34:48.253Z,12.08
2022-12-31T13:36:52.991Z,11.72
2022-12-31T13:39:02.379Z,11.98
2022-12-31T13:41:28.354Z,12.14
2022-12-31T13:43:50.682Z,12.14
2022-12-31T13:46:16.017Z,12.13
2022-12-31T13:48:24.564Z,12.03
2022-12-31T13:50:36.506Z,12.12
2022-12-31T13:52:51.667Z,12.11
2022-12-31T13:55:01.636Z,12.18
2022-12-31T13:57:29.239Z,12.25
2022-12-31T13:59:39.643Z,12.41
2022-12-31T14:02:05.732Z,12.27
2022-12-31T14:04:12.818Z,12.37
2022-12-31T14:06:51.587Z,12.31
2022-12-31T14:08:53.907Z,12.27
2022-12-31T14:11:10.775Z,12.45
2022-12-31T14:13:38.452Z,12.35
2022-12-31T14:15:57.537Z,12.66
2022-12-31T14:17:59.300Z,12.79
2022-12-31T14:20:14.495Z,12.67
2022-12-31T14:22:37.544Z,12.77
2022-12-31T14:24:46.340Z,12.72
2022-12-31T14:26:52.866Z,12.41
2022-12-31T14:29:12.637Z,12.69
2022-12-31T14:31:44.967Z,12.78
2022-12-31T14:34:03.361Z,12.67
2022-12-31T14:36:32.979Z,12.77
2022-12-31T14:38:49.593Z,12.73
2022-12-31T14:41:31.853Z,12.65
2022-12-31T14:44:29.351Z,12.50
2022-12-31T14:46:53.190Z,12.84
2022-12-31T14:49:01.398Z,12.90
2022-12-31T14:51:04.846Z,13.01
2022-12-31T14:53:17.750Z,12.84
2022-12-31T14:55:31.704Z,12.79
2022-12-31T14:58:01.624Z,12.91
2022-12-31T15:00:24.532Z,12.90
2022-12-31T15:04:46.676Z,13.07
2022-12-31T15:07:02.488Z,13.00
2022-12-31T15:09:44.483Z,13.07
2022-12-31T15:12:22.043Z,13.13
2022-12-31T15:14:37.836Z,12.95
2022-12-31T15:16:52.017Z,13.01
2022-12-31T15:19:08.966Z,13.09
2022-12-31T15:21:32.654Z,12.84
2022-12-31T15:23:39.476Z,12.81
2022-12-31T15:25:47.785Z,12.65
2022-12-31T15:27:50.011Z,12.78
2022-12-31T15:29:51.803Z,12.67
2022-12-31T15:31:55.392Z,12.71
2022-12-31T15:34:01.207Z,12.74
2022-12-31T15:36:21.900Z,12.64
2022-12-31T15:38:32.077Z,12.48
2022-12-31T15:40:47.380Z,12.48
2022-12-31T15:42:55.178Z,12.36
2022-12-31T15:45:02.623Z,12.29
2022-12-31T15:47:43.005Z,12.29
2022-12-31T15:49:46.696Z,12.36
2022-12-31T15:51:52.844Z,12.40
2022-12-31T15:53:57.074Z,12.44
2022-12-31T15:56:00.722Z,12.43
2022-12-31T15:58:06.348Z,12.51
2022-12-31T16:00:17.290Z,12.44
2022-12-31T16:02:25.800Z,12.41
2022-12-31T16:04:30.183Z,12.43
2022-12-31T16:06:36.894Z,12.32
2022-12-31T16:08:40.596Z,12.38
2022-12-31T16:10:43.995Z,12.23
2022-12-31T16:12:45.841Z,12.14
2022-12-31T16:14:52.744Z,12.17
2022-12-31T16:16:57.115Z,12.02
2022-12-31T16:19:00.117Z,12.13
2022-12-31T16:21:01.821Z,12.12
2022-12-31T16:23:25.342Z,11.93
2022-12-31T16:25:31.596Z,11.96
2022-12-31T16:27:35.679Z,11.96
2022-12-31T16:29:41.657Z,12.06
2022-12-31T16:31:45.473Z,12.07
2022-12-31T16:33:47.669Z,12.08
2022-12-31T16:35:56.391Z,11.93
2022-12-31T16:38:32.008Z,12.07
2022-12-31T16:40:34.020Z,12.01
2022-12-31T16:42:44.144Z,12.17
2022-12-31T16:44:48.002Z,11.98
2022-12-31T16:47:01.648Z,12.06
2022-12-31T16:49:15.871Z,12.17
2022-12-31T16:51:21.234Z,12.23
2022-12-31T16:53:26.923Z,12.30
2022-12-31T16:55:30.385Z,12.22
2022-12-31T16:57:32.139Z,12.32
2022-12-31T16:59:44.366Z,12.35
2022-12-31T17:01:46.810Z,12.41
2022-12-31T17:03:53.730Z,12.50
2022-12-31T17:06:07.722Z,12.49
2022-12-31T17:08:22.286Z,12.41
2022-12-31T17:10:35.824Z,12.49
2022-12-31T17:13:26.860Z,12.48
2022-12-31T17:15:21.821Z,12.49
2022-12-31T17:17:29.570Z,12.50
2022-12-31T17:19:47.416Z,12.61
2022-12-31T17:21:49.401Z,12.72
2022-12-31T17:23:55.501Z,12.85
2022-12-31T17:25:59.270Z,12.99
2022-12-31T17:28:02.484Z,13.15
2022-12-31T17:30:35.870Z,13.22
2022-12-31T17:32:37.653Z,13.38
2022-12-31T17:34:49.425Z,13.35
2022-12-31T17:36:53.878Z,13.47
2022-12-31T17:38:55.641Z,13.63
2022-12-31T17:41:14.050Z,13.68
2022-12-31T17:43:17.705Z,13.81
2022-12-31T17:45:20.654Z,13.86
2022-12-31T17:47:23.022Z,13.89
2022-12-31T17:49:30.118Z,13.91
2022-12-31T17:51:31.908Z,13.97
2022-12-31T17:53:33.705Z,14.01
2022-12-31T17:55:35.527Z,13.98
2022-12-31T17:57:48.814Z,13.94
2022-12-31T17:59:50.658Z,13.92
2022-12-31T18:01:52.592Z,13.86
2022-12-31T18:03:54.399Z,13.94
2022-12-31T18:05:56.297Z,13.86
2022-12-31T18:07:58.252Z,13.95
2022-12-31T18:10:00.129Z,13.92
2022-12-31T18:12:04.057Z,13.86
2022-12-31T18:14:05.800Z,13.78
2022-12-31T18:16:09.757Z,13.73
2022-12-31T18:18:24.367Z,13.90
2022-12-31T18:20:27.475Z,13.86
2022-12-31T18:22:29.337Z,13.91
2022-12-31T18:24:31.152Z,13.91
2022-12-31T18:26:33.010Z,13.97
2022-12-31T18:28:35.033Z,13.98
2022-12-31T18:30:36.795Z,13.87
2022-12-31T18:32:39.917Z,13.88
2022-12-31T18:34:41.675Z,13.94
2022-12-31T18:36:43.552Z,13.95
2022-12-31T18:38:45.771Z,13.76
2022-12-31T18:40:59.789Z,13.83
2022-12-31T18:43:05.080Z,13.89
2022-12-31T18:45:18.804Z,13.80
2022-12-31T18:47:21.292Z,13.91
2022-12-31T18:49:23.043Z,13.97
2022-12-31T18:51:31.429Z,13.98
2022-12-31T18:53:33.944Z,13.93
2022-12-31T18:55:40.720Z,13.85
2022-12-31T18:57:42.467Z,13.83
2022-12-31T18:59:44.149Z,13.86
2022-12-31T19:01:45.996Z,13.84
2022-12-31T19:03:47.774Z,13.94
2022-12-31T19:05:51.433Z,13.82
2022-12-31T19:07:53.128Z,13.80
2022-12-31T19:09:58.538Z,13.61
2022-12-31T19:12:00.883Z,13.69
2022-12-31T19:14:03.169Z,13.79
2022-12-31T19:16:05.184Z,13.74
2022-12-31T19:18:07.079Z,13.82
2022-12-31T19:20:09.032Z,13.74
2022-12-31T19:22:15.778Z,13.64
2022-12-31T19:24:23.633Z,13.75
2022-12-31T19:26:25.434Z,13.83
2022-12-31T19:28:27.935Z,13.84
2022-12-31T19:30:32.428Z,13.90
2022-12-31T19:32:34.207Z,13.92
2022-12-31T19:34:35.955Z,13.93
2022-12-31T19:36:43.747Z,13.84
2022-12-31T19:38:46.261Z,13.94
2022-12-31T19:40:48.784Z,13.82
2022-12-31T19:42:51.714Z,13.87
2022-12-31T19:44:53.538Z,13.70
2022-12-31T19:46:55.279Z,13.88
2022-12-31T19:48:56.990Z,13.89
2022-12-31T19:50:58.854Z,14.00
2022-12-31T19:53:00.601Z,13.94
2022-12-31T19:55:02.761Z,13.87
2022-12-31T19:57:04.676Z,13.89
2022-12-31T19:59:08.594Z,13.63
2022-12-31T20:01:20.240Z,13.77
2022-12-31T20:03:22.276Z,13.75
2022-12-31T20:05:31.585Z,13.83
2022-12-31T20:07:34.010Z,13.48
2022-12-31T20:09:35.709Z,13.53
2022-12-31T20:11:37.407Z,13.31
2022-12-31T20:13:40.238Z,13.19
2022-12-31T20:15:41.999Z,13.38
2022-12-31T20:17:43.830Z,13.16
2022-12-31T20:19:45.562Z,13.32
2022-12-31T20:21:47.368Z,13.37
2022-12-31T20:23:50.913Z,13.51
2022-12-31T20:25:59.829Z,13.53
2022-12-31T20:28:01.665Z,13.51
2022-12-31T20:30:03.953Z,13.49
2022-12-31T20:32:05.993Z,13.58
2022-12-31T20:34:07.746Z,13.42
2022-12-31T20:36:12.824Z,13.32
2022-12-31T20:38:14.695Z,13.45
2022-12-31T20:40:16.635Z,13.51
2022-12-31T20:42:18.379Z,13.48
2022-12-31T20:44:20.096Z,13.50
2022-12-31T20:46:25.208Z,13.51
2022-12-31T20:48:27.079Z,13.63
2022-12-31T20:50:28.779Z,13.58
2022-12-31T20:52:30.684Z,13.58
2022-12-31T20:54:32.647Z,13.46
2022-12-31T20:56:38.066Z,13.45
2022-12-31T20:58:39.886Z,13.27
2022-12-31T21:00:41.644Z,13.17
2022-12-31T21:02:46.621Z,13.27
2022-12-31T21:04:51.423Z,13.07
2022-12-31T21:06:53.219Z,13.10
2022-12-31T21:08:56.588Z,13.04
2022-12-31T21:10:58.373Z,12.94
2022-12-31T21:13:00.098Z,12.90
2022-12-31T21:15:02.042Z,13.00
2022-12-31T21:17:03.751Z,12.91
2022-12-31T21:19:05.545Z,12.94
2022-12-31T21:21:07.406Z,12.93
2022-12-31T21:23:09.149Z,12.75
2022-12-31T21:25:11.008Z,12.84
2022-12-31T21:27:12.739Z,13.03
2022-12-31T21:29:14.618Z,12.87
2022-12-31T21:31:16.398Z,12.96
2022-12-31T21:33:18.168Z,13.09
2022-12-31T21:37:59.067Z,13.23
2022-12-31T21:40:02.632Z,13.16
2022-12-31T21:42:04.496Z,13.22
2022-12-31T21:44:06.194Z,13.32
2022-12-31T21:46:07.967Z,13.32
2022-12-31T21:48:14.881Z,13.47
2022-12-31T21:50:16.693Z,13.49
2022-12-31T21:52:18.411Z,13.51
2022-12-31T21:54:20.338Z,13.56
2022-12-31T21:56:22.144Z,13.60
2022-12-31T21:58:27.055Z,13.45
2022-12-31T22:00:44.575Z,13.50
2022-12-31T22:02:59.852Z,13.51
2022-12-31T22:05:03.040Z,13.65
2022-12-31T22:07:05.979Z,13.68
2022-12-31T22:09:07.668Z,13.61
2022-12-31T22:11:11.091Z,13.68
2022-12-31T22:13:13.909Z,13.66
2022-12-31T22:15:16.445Z,13.76
2022-12-31T22:17:18.233Z,13.76
2022-12-31T22:19:20.109Z,13.50
2022-12-31T22:21:24.004Z,13.69
2022-12-31T22:23:25.730Z,13.81
2022-12-31T22:25:27.665Z,13.71
2022-12-31T22:27:30.106Z,13.59
2022-12-31T22:29:31.985Z,13.86
2022-12-31T22:31:33.870Z,13.85
2022-12-31T22:33:35.631Z,13.90
2022-12-31T22:35:37.348Z,13.90
2022-12-31T22:37:56.755Z,13.95
2022-12-31T22:39:59.739Z,14.03
2022-12-31T22:42:02.713Z,14.03
2022-12-31T22:44:05.042Z,14.04
2022-12-31T22:46:28.381Z,14.07
2022-12-31T22:48:30.482Z,13.97
2022-12-31T22:50:32.472Z,14.04
2022-12-31T22:52:34.154Z,14.04
2022-12-31T22:54:35.855Z,14.09
2022-12-31T22:56:37.789Z,14.08
2022-12-31T22:58:39.889Z,14.02
2022-12-31T23:00:42.941Z,14.14
2022-12-31T23:02:44.845Z,14.19
2022-12-31T23:04:46.593Z,14.24
2022-12-31T23:06:48.501Z,14.22
2022-12-31T23:08:51.618Z,14.12
2022-12-31T23:10:54.000Z,14.07
2022-12-31T23:12:55.727Z,14.13
2022-12-31T23:14:57.560Z,14.13
2022-12-31T23:16:59.451Z,14.11
2022-12-31T23:19:21.138Z,14.19
2022-12-31T23:21:23.062Z,14.10
2022-12-31T23:23:24.793Z,13.97
2022-12-31T23:25:26.521Z,14.13
2022-12-31T23:27:28.471Z,14.12
2022-12-31T23:29:30.225Z,14.12
2022-12-31T23:31:32.055Z,14.10
2022-12-31T23:33:34.083Z,14.01
2022-12-31T23:35:35.773Z,14.08
2022-12-31T23:37:37.548Z,14.04
2022-12-31T23:39:39.811Z,14.05
2022-12-31T23:41:41.654Z,14.02
2022-12-31T23:43:43.993Z,13.92
2022-12-31T23:45:45.883Z,14.02
2022-12-31T23:47:47.612Z,14.04
2022-12-31T23:49:49.347Z,13.98
2022-12-31T23:51:51.120Z,13.90
2022-12-31T23:53:52.805Z,13.86
2022-12-31T23:55:54.589Z,13.91
2022-12-31T23:57:56.357Z,13.86
2022-12-31T23:59:58.067Z,13.91
